Nearby METAR Reports

 

KPMD - Palmdale, California, USA
Distance from station: NNE 12mi, 19km
Updated: Sat, 24-Jun-2017 12:53am PDT
Clear
Clear
 Wind from SSW
Wind: SSW 8 mph , 13 km/h
Temperature: 81°F , 27°C
Dew Point: 50°F , 10°C
Humidity: 34%
Barometer: 29.95 inHg , 1014.2 hPa
Clouds: Clear
Visibility: 10 miles , 16 km
2017/06/24 07:53 KPMD 240753Z AUTO 20007KT 10SM CLR 27/10 A2995 RMK AO2 SLP102 T02670100 404280233
KWJF - Lancaster/Fox, California, USA
Distance from station: N 17mi, 27km
Updated: Sat, 24-Jun-2017 12:56am PDT
Clear
Clear
 Wind from W
Wind: W 17 mph , 28 km/h
Temperature: 88°F , 31°C
Dew Point: 52°F , 11°C
Humidity: 29%
Barometer: 29.92 inHg , 1013.2 hPa
Clouds: Clear
Visibility: 10 miles , 16 km
2017/06/24 07:56 KWJF 240756Z AUTO 26015KT 10SM CLR 31/11 A2992 RMK AO2 SLP099 T03060106 404280178
 
KMWS - Mount Wilson, California, USA
Distance from station: SSE 18mi, 30km
Updated: Wed, 13-May-2015 6:45am PDT
NOT Current

 Wind from S
Wind: S 3 mph , 6 km/h, Gust: 5 mph , 7 km/h
Temperature: 43°F , 6°C
Dew Point: -0°F , -18°C
Humidity: 16%
2015/05/13 13:45 KMWS 131345Z 18003G04KT 06/M18 RMK SNOW DEPTH 1.00
KWHP - La / Whiteman, California, USA
Distance from station: SW 21mi, 34km
Updated: Fri, 23-Jun-2017 7:53pm PDT
NOT Current
Clear
Clear
 Wind from E
Wind: E 7 mph , 11 km/h
Temperature: 72°F , 22°C
Dew Point: 59°F , 15°C
Humidity: 65%
Barometer: 29.94 inHg , 1013.9 hPa
Clouds: Clear
Visibility: 10 miles , 16 km
2017/06/24 02:53 KWHP 240253Z 10006KT 10SM SKC 22/15 A2994 RMK LAST
 
KBUR - Burbank, California, USA
Distance from station: SSW 22mi, 35km
Updated: Sat, 24-Jun-2017 12:53am PDT
Clear
Clear
 Wind from SSE
Wind: SSE 8 mph , 13 km/h
Temperature: 66°F , 19°C
Dew Point: 59°F , 15°C
Humidity: 78%
Barometer: 29.90 inHg , 1012.5 hPa
Clouds: Clear
Visibility: 10 miles , 16 km
2017/06/24 07:53 KBUR 240753Z 15007KT 10SM CLR 19/15 A2990 RMK AO2 SLP114 T01890150 402890172 $
KVNY - Van Nuys, California, USA
Distance from station: SW 25mi, 40km
Updated: Sat, 24-Jun-2017 12:51am PDT
Clear
Clear
 Wind from SSE
Wind: SSE 6 mph , 9 km/h
Temperature: 66°F , 19°C
Dew Point: 61°F , 16°C
Humidity: 83%
Barometer: 29.90 inHg , 1012.5 hPa
Clouds: Clear
Visibility: 10 miles , 16 km
2017/06/24 07:51 KVNY 240751Z AUTO 16005KT 10SM CLR 19/16 A2990 RMK AO2 SLP117 T01890161 403060172
 
KEDW - Edwards Afb, California, USA
Distance from station: NNE 33mi, 53km
Updated: Sat, 24-Jun-2017 12:58am PDT
Clear
Clear
 Wind from SSW
Wind: SSW 12 mph , 19 km/h
Temperature: 81°F , 27°C
Dew Point: 48°F , 9°C
Humidity: 32%
Barometer: 29.89 inHg , 1012.2 hPa
Clouds: Clear
Visibility: 10 miles , 16 km
2017/06/24 07:58 KEDW 240758Z AUTO 21010KT 10SM CLR 27/09 A2989 RMK AO2 SLP089 T02710087 404350207
KSMO - Santa Monica, California, USA
Distance from station: SSW 35mi, 57km
Updated: Sat, 24-Jun-2017 12:51am PDT
Overcast
Overcast
 Wind from SW
Wind: SW 5 mph , 7 km/h
Temperature: 61°F , 16°C
Dew Point: 61°F , 16°C
Humidity: 100%
Barometer: 29.92 inHg , 1013.2 hPa
Clouds: Overcast
Visibility: 9 miles , 14 km
Cloud details: Overcast 400 ft
2017/06/24 07:51 KSMO 240751Z AUTO 22004KT 9SM OVC004 16/16 A2992 RMK AO2 SLP129 T01610156 402060161
 
KLAX - Los Angeles, California, USA
Distance from station: SSW 39mi, 63km
Updated: Sat, 24-Jun-2017 12:53am PDT
Mist, Overcast
Mist, Overcast
 Wind from W
Wind: W 10 mph , 17 km/h
Temperature: 61°F , 16°C
Dew Point: 61°F , 16°C
Humidity: 100%
Barometer: 29.91 inHg , 1012.9 hPa
Summary: Mist
Clouds: Overcast
Visibility: 2 miles , 3 km
Cloud details: Overcast 400 ft
2017/06/24 07:53 KLAX 240753Z 27009KT 2SM BR OVC004 16/16 A2991 RMK AO2 SLP126 VIS SW-NW 1 1/4 T01610156 402110161
KMHV - Mojave, California, USA
Distance from station: N 41mi, 66km
Updated: Sat, 24-Jun-2017 1:20am PDT
Clear
Clear
 Wind from WNW
Wind: WNW 30 mph , 48 km/h, Gust: 40 mph , 65 km/h
Temperature: 88°F , 31°C
Dew Point: 52°F , 11°C
Humidity: 29%
Barometer: 29.90 inHg , 1012.5 hPa
Clouds: Clear
Visibility: 10 miles , 16 km
2017/06/24 08:20 KMHV 240820Z AUTO 30026G35KT 10SM CLR 31/11 A2990 RMK A01
 
KFUL - Fullerton, California, USA
Distance from station: SSE 44mi, 70km
Updated: Sat, 24-Jun-2017 12:53am PDT
Clear
Clear
 Wind from W
Wind: W 3 mph , 6 km/h
Temperature: 64°F , 18°C
Dew Point: 61°F , 16°C
Humidity: 88%
Barometer: 29.90 inHg , 1012.5 hPa
Clouds: Clear
Visibility: 8 miles , 13 km
2017/06/24 07:53 KFUL 240753Z AUTO 26003KT 8SM CLR 18/16 A2990 RMK AO2 SLP123 T01830161 402830178
KONT - Ontario, California, USA
Distance from station: SE 45mi, 72km
Updated: Sat, 24-Jun-2017 12:53am PDT
Clear
Clear
 Wind from WSW
Wind: WSW 5 mph , 7 km/h
Temperature: 66°F , 19°C
Dew Point: 59°F , 15°C
Humidity: 78%
Barometer: 29.91 inHg , 1012.9 hPa
Clouds: Clear
Visibility: 10 miles , 16 km
2017/06/24 07:53 KONT 240753Z 25004KT 10SM CLR 19/15 A2991 RMK AO2 SLP110 T01940150 403280167
 
KLGB - Long Beach, California, USA
Distance from station: S 46mi, 74km
Updated: Sat, 24-Jun-2017 12:53am PDT
Overcast
Overcast
 Wind from NW
Wind: NW 8 mph , 13 km/h
Temperature: 64°F , 18°C
Dew Point: 59°F , 15°C
Humidity: 83%
Barometer: 29.91 inHg , 1012.9 hPa
Clouds: Overcast
Visibility: 9 miles , 14 km
Cloud details: Overcast 900 ft
2017/06/24 07:53 KLGB 240753Z AUTO 31007KT 9SM OVC009 18/15 A2991 RMK AO2 SLP126 T01780150 402560172 TSNO
KVCV - Victorville, California, USA
Distance from station: E 46mi, 74km
Updated: Sat, 24-Jun-2017 1:15am PDT
Clear
Clear
 Wind from W
Wind: W 12 mph , 19 km/h
Temperature: 88°F , 31°C
Dew Point: 37°F , 3°C
Humidity: 17%
Barometer: 29.96 inHg , 1014.6 hPa
Clouds: Clear
Visibility: 7 miles , 11 km
2017/06/24 08:15 KVCV 240815Z AUTO 26010KT 230V290 7SM CLR 31/03 A2996 RMK AO2
 
KTSP - Tehachapi, California, USA
Distance from station: NNW 48mi, 77km
Updated: Sat, 24-Jun-2017 1:35am PDT
Clear
Clear
 Wind from W
Wind: W 10 mph , 17 km/h
Temperature: 73°F , 23°C
Dew Point: 50°F , 10°C
Humidity: 44%
Barometer: 30.10 inHg , 1019.3 hPa
Clouds: Clear
Visibility: 10 miles , 16 km
2017/06/24 08:35 KTSP 240835Z AUTO 27009KT 10SM CLR 23/10 A3010 RMK AO2